createdAt,value
2018-11-01T00:01:39.192Z,3.63
2018-11-01T00:04:07.427Z,3.80
2018-11-01T00:06:35.667Z,3.70
2018-11-01T00:09:05.052Z,4.30
2018-11-01T00:11:33.300Z,4.10
2018-11-01T00:14:01.665Z,3.80
2018-11-01T00:16:29.973Z,3.93
2018-11-01T00:18:58.240Z,3.30
2018-11-01T00:21:26.535Z,4.30
2018-11-01T00:23:54.826Z,4.30
2018-11-01T00:26:23.056Z,4.03
2018-11-01T00:28:51.311Z,4.17
2018-11-01T00:31:19.552Z,4.53
2018-11-01T00:33:47.764Z,4.10
2018-11-01T00:36:16.019Z,4.53
2018-11-01T00:38:44.263Z,4.40
2018-11-01T00:41:12.539Z,4.03
2018-11-01T00:43:40.736Z,4.27
2018-11-01T00:46:09.017Z,4.00
2018-11-01T00:48:37.290Z,4.07
2018-11-01T00:51:06.036Z,4.07
2018-11-01T00:53:34.299Z,3.93
2018-11-01T00:56:02.546Z,4.43
2018-11-01T00:58:30.837Z,5.00
2018-11-01T01:00:59.491Z,3.77
2018-11-01T01:03:27.766Z,4.20
2018-11-01T01:05:56.087Z,4.20
2018-11-01T01:08:24.701Z,4.00
2018-11-01T01:10:53.015Z,4.03
2018-11-01T01:13:21.239Z,4.47
2018-11-01T01:15:50.412Z,3.70
2018-11-01T01:18:18.647Z,3.50
2018-11-01T01:20:46.886Z,3.85
2018-11-01T01:23:15.135Z,3.30
2018-11-01T01:25:43.407Z,3.50
2018-11-01T01:28:11.640Z,4.20
2018-11-01T01:30:39.863Z,3.20
2018-11-01T01:33:08.598Z,3.27
2018-11-01T01:35:36.853Z,3.63
2018-11-01T01:38:05.160Z,3.47
2018-11-01T01:40:33.407Z,3.70
2018-11-01T01:43:01.675Z,3.27
2018-11-01T01:45:29.979Z,4.20
2018-11-01T01:47:58.278Z,4.10
2018-11-01T01:50:26.538Z,3.40
2018-11-01T01:52:54.811Z,3.50
2018-11-01T01:55:23.096Z,3.87
2018-11-01T01:57:51.339Z,3.53
2018-11-01T02:00:20.992Z,3.53
2018-11-01T02:02:50.676Z,3.57
2018-11-01T02:05:18.940Z,3.50
2018-11-01T02:07:47.164Z,3.30
2018-11-01T02:10:16.335Z,3.43
2018-11-01T02:12:44.544Z,3.17
2018-11-01T02:15:15.080Z,3.20
2018-11-01T02:17:43.756Z,3.50
2018-11-01T02:20:13.375Z,3.60
2018-11-01T02:22:42.356Z,3.72
2018-11-01T02:25:10.726Z,3.30
2018-11-01T02:27:44.518Z,3.30
2018-11-01T02:30:15.083Z,2.67
2018-11-01T02:32:43.866Z,3.37
2018-11-01T02:35:14.189Z,3.20
2018-11-01T02:37:43.021Z,3.50
2018-11-01T02:40:11.818Z,3.60
2018-11-01T02:42:40.650Z,3.70
2018-11-01T02:45:09.674Z,3.22
2018-11-01T02:47:38.231Z,3.00
2018-11-01T02:50:06.947Z,3.00
2018-11-01T02:52:35.208Z,3.13
2018-11-01T02:55:03.923Z,3.60
2018-11-01T02:57:32.169Z,3.50
2018-11-01T03:00:00.415Z,2.73
2018-11-01T03:02:28.703Z,3.40
2018-11-01T03:04:57.666Z,3.40
2018-11-01T03:07:25.985Z,3.17
2018-11-01T03:09:54.261Z,3.43
2018-11-01T03:12:22.520Z,3.33
2018-11-01T03:14:50.827Z,3.40
2018-11-01T03:17:19.196Z,3.30
2018-11-01T03:19:47.344Z,3.20
2018-11-01T03:22:15.592Z,3.13
2018-11-01T03:24:44.061Z,3.17
2018-11-01T03:27:12.276Z,3.37
2018-11-01T03:29:41.789Z,3.50
2018-11-01T03:32:10.065Z,3.10
2018-11-01T03:34:38.295Z,3.10
2018-11-01T03:37:06.572Z,3.03
2018-11-01T03:39:34.815Z,3.27
2018-11-01T03:42:03.651Z,3.77
2018-11-01T03:44:31.951Z,2.83
2018-11-01T03:47:00.229Z,3.50
2018-11-01T03:49:28.499Z,2.33
2018-11-01T03:51:56.828Z,3.27
2018-11-01T03:54:25.049Z,3.50
2018-11-01T03:56:53.310Z,3.30
2018-11-01T03:59:21.608Z,3.00
2018-11-01T04:01:49.875Z,3.60
2018-11-01T04:04:18.744Z,3.57
2018-11-01T04:06:47.762Z,2.90
2018-11-01T04:09:16.001Z,3.30
2018-11-01T04:11:44.223Z,3.60
2018-11-01T04:14:12.463Z,3.23
2018-11-01T04:16:40.738Z,3.80
2018-11-01T04:19:08.977Z,3.13
2018-11-01T04:21:37.205Z,3.73
2018-11-01T04:24:05.571Z,3.37
2018-11-01T04:26:33.787Z,3.30
2018-11-01T04:29:02.034Z,3.63
2018-11-01T04:31:30.346Z,3.33
2018-11-01T04:33:58.667Z,3.40
2018-11-01T04:36:27.005Z,3.47
2018-11-01T04:38:55.492Z,2.80
2018-11-01T04:41:23.785Z,3.67
2018-11-01T04:43:52.043Z,3.50
2018-11-01T04:46:21.061Z,3.33
2018-11-01T04:48:49.557Z,3.60
2018-11-01T04:51:17.830Z,3.83
2018-11-01T04:53:46.093Z,4.30
2018-11-01T04:56:14.345Z,3.50
2018-11-01T04:58:42.613Z,3.50
2018-11-01T05:01:10.883Z,4.27
2018-11-01T05:03:39.153Z,3.87
2018-11-01T05:06:07.423Z,3.60
2018-11-01T05:08:35.679Z,3.77
2018-11-01T05:11:03.960Z,3.83
2018-11-01T05:13:32.186Z,3.83
2018-11-01T05:16:00.429Z,3.80
2018-11-01T05:18:28.690Z,3.30
2018-11-01T05:20:57.124Z,4.00
2018-11-01T05:23:25.348Z,3.13
2018-11-01T05:25:53.897Z,3.63
2018-11-01T05:28:22.275Z,3.60
2018-11-01T05:30:51.599Z,3.87
2018-11-01T05:33:20.060Z,3.90
2018-11-01T05:35:48.355Z,3.67
2018-11-01T05:38:16.598Z,4.30
2018-11-01T05:40:44.870Z,4.73
2018-11-01T05:43:17.990Z,4.10
2018-11-01T05:45:46.175Z,3.80
2018-11-01T05:48:15.213Z,5.13
2018-11-01T05:50:43.451Z,3.87
2018-11-01T05:53:12.400Z,4.45
2018-11-01T05:55:40.695Z,4.30
2018-11-01T05:58:09.514Z,4.40
2018-11-01T06:00:37.722Z,4.50
2018-11-01T06:03:06.046Z,4.77
2018-11-01T06:05:34.289Z,4.70
2018-11-01T06:08:05.007Z,5.10
2018-11-01T06:10:33.687Z,4.83
2018-11-01T06:13:01.915Z,4.67
2018-11-01T06:15:30.153Z,4.63
2018-11-01T06:17:58.473Z,4.87
2018-11-01T06:20:26.786Z,5.27
2018-11-01T06:22:55.367Z,5.40
2018-11-01T06:25:23.612Z,4.57
2018-11-01T06:27:51.823Z,5.40
2018-11-01T06:30:20.275Z,4.63
2018-11-01T06:32:48.684Z,5.30
2018-11-01T06:35:25.149Z,5.43
2018-11-01T06:37:53.595Z,5.30
2018-11-01T06:40:22.198Z,5.13
2018-11-01T06:42:50.481Z,5.23
2018-11-01T06:45:19.725Z,5.00
2018-11-01T06:47:48.433Z,4.97
2018-11-01T06:50:16.690Z,4.63
2018-11-01T06:52:45.408Z,5.13
2018-11-01T06:55:13.644Z,4.73
2018-11-01T06:57:41.846Z,5.10
2018-11-01T07:00:12.516Z,4.70
2018-11-01T07:02:41.212Z,5.20
2018-11-01T07:05:09.484Z,5.30
2018-11-01T07:07:38.216Z,5.30
2018-11-01T07:10:08.292Z,5.20
2018-11-01T07:12:37.196Z,6.07
2018-11-01T07:15:06.751Z,5.27
2018-11-01T07:17:35.143Z,4.50
2018-11-01T07:20:03.626Z,5.17
2018-11-01T07:22:32.496Z,5.30
2018-11-01T07:25:00.723Z,4.67
2018-11-01T07:27:29.270Z,5.00
2018-11-01T07:29:57.626Z,4.73
2018-11-01T07:32:25.902Z,4.73
2018-11-01T07:34:54.184Z,4.70
2018-11-01T07:37:22.452Z,5.13
2018-11-01T07:39:50.723Z,5.47
2018-11-01T07:42:18.939Z,5.50
2018-11-01T07:44:47.177Z,5.23
2018-11-01T07:47:15.428Z,5.27
2018-11-01T07:49:43.684Z,4.60
2018-11-01T07:52:11.949Z,5.70
2018-11-01T07:54:40.232Z,5.60
2018-11-01T07:57:08.549Z,5.90
2018-11-01T07:59:36.760Z,5.30
2018-11-01T08:02:05.502Z,5.87
2018-11-01T08:04:33.732Z,5.33
2018-11-01T08:07:01.978Z,5.27
2018-11-01T08:09:30.223Z,6.20
2018-11-01T08:11:58.561Z,5.93
2018-11-01T08:14:27.155Z,6.50
2018-11-01T08:16:55.758Z,6.13
2018-11-01T08:19:24.652Z,5.67
2018-11-01T08:21:52.841Z,5.37
2018-11-01T08:24:21.114Z,5.60
2018-11-01T08:26:49.571Z,6.10
2018-11-01T08:29:17.863Z,6.00
2018-11-01T08:31:46.794Z,5.17
2018-11-01T08:34:15.153Z,6.33
2018-11-01T08:36:43.383Z,6.30
2018-11-01T08:39:11.620Z,5.53
2018-11-01T08:41:39.912Z,5.70
2018-11-01T08:44:08.191Z,5.87
2018-11-01T08:46:36.415Z,6.93
2018-11-01T08:49:05.281Z,5.97
2018-11-01T08:51:33.525Z,6.10
2018-11-01T08:54:01.787Z,6.30
2018-11-01T08:56:30.000Z,5.50
2018-11-01T08:58:58.257Z,6.13
2018-11-01T09:01:26.599Z,6.10
2018-11-01T09:03:54.921Z,5.80
2018-11-01T09:06:23.157Z,6.20
2018-11-01T09:08:51.418Z,5.73
2018-11-01T09:11:19.683Z,6.77
2018-11-01T09:13:47.941Z,6.40
2018-11-01T09:16:16.220Z,6.03
2018-11-01T09:18:44.472Z,6.17
2018-11-01T09:21:12.772Z,6.40
2018-11-01T09:23:41.024Z,5.97
2018-11-01T09:26:09.285Z,6.20
2018-11-01T09:28:37.511Z,6.80
2018-11-01T09:31:05.726Z,6.10
2018-11-01T09:33:34.236Z,6.47
2018-11-01T09:36:02.480Z,6.30
2018-11-01T09:38:30.720Z,6.70
2018-11-01T09:40:59.101Z,7.07
2018-11-01T09:43:27.618Z,6.37
2018-11-01T09:45:55.970Z,7.03
2018-11-01T09:48:24.196Z,6.90
2018-11-01T09:50:52.473Z,6.97
2018-11-01T09:53:20.760Z,6.90
2018-11-01T09:55:49.413Z,7.10
2018-11-01T09:58:17.959Z,7.27
2018-11-01T10:00:46.295Z,7.57
2018-11-01T10:03:14.536Z,7.13
2018-11-01T10:05:42.810Z,7.97
2018-11-01T10:08:11.048Z,8.63
2018-11-01T10:10:40.292Z,7.27
2018-11-01T10:13:08.569Z,7.93
2018-11-01T10:15:36.991Z,8.13
2018-11-01T10:18:05.352Z,8.90
2018-11-01T10:20:33.339Z,8.17
2018-11-01T10:23:01.664Z,7.83
2018-11-01T10:25:29.974Z,8.60
2018-11-01T10:27:58.144Z,8.98
2018-11-01T10:30:27.327Z,8.73
2018-11-01T10:32:55.607Z,8.33
2018-11-01T10:35:23.955Z,8.00
2018-11-01T10:37:52.219Z,8.95
2018-11-01T10:40:21.293Z,9.20
2018-11-01T10:42:49.580Z,9.00
2018-11-01T10:45:17.839Z,9.15
2018-11-01T10:47:46.137Z,8.78
2018-11-01T10:50:16.986Z,9.35
2018-11-01T10:52:45.242Z,8.73
2018-11-01T10:55:14.480Z,8.25
2018-11-01T10:57:42.888Z,9.15
2018-11-01T11:00:17.185Z,9.80
2018-11-01T11:02:47.665Z,12.40
2018-11-01T11:05:17.035Z,8.43
2018-11-01T11:07:45.428Z,8.93
2018-11-01T11:10:13.892Z,8.85
2018-11-01T11:12:42.380Z,8.13
2018-11-01T11:15:10.807Z,10.17
2018-11-01T11:17:39.517Z,8.58
2018-11-01T11:20:08.662Z,8.35
2018-11-01T11:22:37.364Z,8.90
2018-11-01T11:25:07.109Z,9.17
2018-11-01T11:27:35.401Z,9.13
2018-11-01T11:30:03.757Z,8.87
2018-11-01T11:32:32.580Z,7.92
2018-11-01T11:35:01.224Z,8.93
2018-11-01T11:37:29.482Z,8.47
2018-11-01T11:39:57.776Z,8.10
2018-11-01T11:42:26.055Z,7.87
2018-11-01T11:44:54.683Z,8.65
2018-11-01T11:47:22.962Z,9.10
2018-11-01T11:49:51.235Z,9.10
2018-11-01T11:52:19.486Z,8.87
2018-11-01T11:54:47.727Z,8.95
2018-11-01T11:57:15.964Z,8.95
2018-11-01T11:59:44.876Z,8.92
2018-11-01T12:02:13.160Z,8.85
2018-11-01T12:04:41.452Z,9.08
2018-11-01T12:07:09.715Z,9.05
2018-11-01T12:09:37.977Z,9.08
2018-11-01T12:12:06.200Z,9.35
2018-11-01T12:14:34.484Z,8.67
2018-11-01T12:17:02.935Z,8.88
2018-11-01T12:19:31.251Z,8.75
2018-11-01T12:21:59.526Z,8.73
2018-11-01T12:24:27.811Z,9.25
2018-11-01T12:26:56.172Z,8.13
2018-11-01T12:29:24.447Z,8.37
2018-11-01T12:31:52.687Z,8.45
2018-11-01T12:34:21.008Z,8.40
2018-11-01T12:36:49.265Z,8.98
2018-11-01T12:39:17.568Z,8.23
2018-11-01T12:41:45.788Z,8.65
2018-11-01T12:44:14.017Z,8.23
2018-11-01T12:46:42.415Z,8.20
2018-11-01T12:49:10.640Z,8.70
2018-11-01T12:51:38.871Z,8.30
2018-11-01T12:54:07.151Z,8.83
2018-11-01T12:56:35.471Z,7.97
2018-11-01T12:59:03.685Z,8.23
2018-11-01T13:01:31.895Z,7.93
2018-11-01T13:04:00.163Z,8.70
2018-11-01T13:06:28.438Z,8.63
2018-11-01T13:08:56.684Z,8.03
2018-11-01T13:11:25.021Z,8.37
2018-11-01T13:13:53.259Z,8.80
2018-11-01T13:16:21.522Z,8.33
2018-11-01T13:18:49.797Z,9.40
2018-11-01T13:21:18.073Z,9.40
2018-11-01T13:23:46.459Z,9.23
2018-11-01T13:26:14.790Z,9.47
2018-11-01T13:28:43.048Z,9.07
2018-11-01T13:31:11.330Z,9.40
2018-11-01T13:33:39.582Z,9.53
2018-11-01T13:36:07.892Z,8.63
2018-11-01T13:38:36.269Z,9.28
2018-11-01T13:41:05.994Z,9.73
2018-11-01T13:43:33.772Z,9.57
2018-11-01T13:46:02.038Z,8.97
2018-11-01T13:48:30.386Z,9.97
2018-11-01T13:50:58.631Z,8.80
2018-11-01T13:53:26.872Z,9.27
2018-11-01T13:55:55.165Z,9.73
2018-11-01T13:58:24.115Z,9.48
2018-11-01T14:00:52.371Z,9.77
2018-11-01T14:03:20.664Z,9.93
2018-11-01T14:05:48.950Z,9.67
2018-11-01T14:08:17.201Z,9.40
2018-11-01T14:10:45.459Z,9.57
2018-11-01T14:13:13.738Z,9.40
2018-11-01T14:15:42.293Z,8.80
2018-11-01T14:18:10.436Z,9.57
2018-11-01T14:20:38.829Z,9.67
2018-11-01T14:23:07.119Z,9.80
2018-11-01T14:25:35.444Z,9.17
2018-11-01T14:28:03.703Z,8.80
2018-11-01T14:30:31.917Z,10.10
2018-11-01T14:33:00.180Z,9.60
2018-11-01T14:35:28.440Z,9.37
2018-11-01T14:37:56.844Z,10.20
2018-11-01T14:40:25.108Z,10.50
2018-11-01T14:42:53.385Z,9.93
2018-11-01T14:45:21.620Z,9.10
2018-11-01T14:47:49.903Z,9.30
2018-11-01T14:50:18.172Z,9.63
2018-11-01T14:52:47.120Z,9.70
2018-11-01T14:55:16.144Z,9.70
2018-11-01T14:57:45.185Z,10.43
2018-11-01T15:00:12.245Z,9.37
2018-11-01T15:02:40.593Z,9.37
2018-11-01T15:05:09.225Z,8.90
2018-11-01T15:07:37.510Z,9.53
2018-11-01T15:10:07.922Z,9.47
2018-11-01T15:12:36.372Z,10.10
2018-11-01T15:15:06.208Z,9.37
2018-11-01T15:17:34.507Z,9.03
2018-11-01T15:20:02.788Z,9.10
2018-11-01T15:22:31.052Z,9.20
2018-11-01T15:25:00.384Z,9.20
2018-11-01T15:27:28.758Z,10.30
2018-11-01T15:29:57.061Z,9.30
2018-11-01T15:32:28.482Z,9.37
2018-11-01T15:34:57.357Z,9.30
2018-11-01T15:37:25.739Z,9.40
2018-11-01T15:39:54.592Z,9.07
2018-11-01T15:42:22.859Z,10.00
2018-11-01T15:44:51.317Z,9.57
2018-11-01T15:47:19.543Z,9.77
2018-11-01T15:49:47.821Z,9.87
2018-11-01T15:52:16.100Z,8.93
2018-11-01T15:54:44.383Z,10.03
2018-11-01T15:57:12.649Z,10.00
2018-11-01T15:59:40.987Z,10.20
2018-11-01T16:02:09.231Z,9.50
2018-11-01T16:04:37.480Z,10.50
2018-11-01T16:07:06.230Z,10.77
2018-11-01T16:09:34.496Z,10.13
2018-11-01T16:12:02.773Z,10.07
2018-11-01T16:14:31.057Z,10.72
2018-11-01T16:16:59.327Z,10.60
2018-11-01T16:19:27.625Z,9.87
2018-11-01T16:21:55.930Z,9.97
2018-11-01T16:24:24.230Z,10.07
2018-11-01T16:26:52.548Z,10.70
2018-11-01T16:29:20.889Z,11.40
2018-11-01T16:31:49.740Z,10.30
2018-11-01T16:34:18.092Z,10.30
2018-11-01T16:36:46.411Z,10.57
2018-11-01T16:39:14.670Z,10.30
2018-11-01T16:41:43.589Z,9.30
2018-11-01T16:44:12.171Z,10.50
2018-11-01T16:46:40.490Z,10.37
2018-11-01T16:49:09.452Z,10.93
2018-11-01T16:51:37.763Z,10.73
2018-11-01T16:54:06.266Z,10.67
2018-11-01T16:56:35.078Z,10.23
2018-11-01T16:59:03.423Z,10.97
2018-11-01T17:01:31.915Z,11.70
2018-11-01T17:04:00.252Z,11.30
2018-11-01T17:06:28.604Z,11.77
2018-11-01T17:08:57.077Z,12.00
2018-11-01T17:11:25.419Z,11.63
2018-11-01T17:13:53.745Z,12.13
2018-11-01T17:16:22.035Z,11.37
2018-11-01T17:18:50.372Z,11.40
2018-11-01T17:21:18.702Z,12.70
2018-11-01T17:23:47.001Z,11.60
2018-11-01T17:26:15.364Z,11.33
2018-11-01T17:28:43.675Z,11.57
2018-11-01T17:31:12.248Z,12.50
2018-11-01T17:33:40.588Z,11.60
2018-11-01T17:36:08.953Z,12.37
2018-11-01T17:38:37.239Z,12.37
2018-11-01T17:41:05.564Z,12.57
2018-11-01T17:43:33.989Z,12.07
2018-11-01T17:46:02.356Z,12.33
2018-11-01T17:48:30.577Z,12.60
2018-11-01T17:51:00.841Z,11.60
2018-11-01T17:53:29.191Z,12.73
2018-11-01T17:55:57.594Z,12.23
2018-11-01T17:58:25.878Z,12.90
2018-11-01T18:00:54.235Z,12.63
2018-11-01T18:03:22.916Z,13.60
2018-11-01T18:05:51.251Z,14.53
2018-11-01T18:08:19.683Z,13.03
2018-11-01T18:10:48.417Z,12.00
2018-11-01T18:13:16.786Z,12.07
2018-11-01T18:15:45.081Z,11.90
2018-11-01T18:18:13.430Z,12.27
2018-11-01T18:20:41.773Z,12.40
2018-11-01T18:23:10.715Z,12.13
2018-11-01T18:25:44.829Z,12.13
2018-11-01T18:28:13.084Z,12.87
2018-11-01T18:30:41.461Z,11.97
2018-11-01T18:33:09.988Z,14.13
2018-11-01T18:35:38.299Z,12.60
2018-11-01T18:38:06.634Z,13.10
2018-11-01T18:40:34.953Z,12.70
2018-11-01T18:43:03.312Z,13.83
2018-11-01T18:45:31.639Z,13.13
2018-11-01T18:48:00.015Z,12.03
2018-11-01T18:50:28.941Z,12.90
2018-11-01T18:52:58.284Z,12.70
2018-11-01T18:55:26.609Z,12.80
2018-11-01T18:57:55.565Z,12.90
2018-11-01T19:00:23.943Z,13.13
2018-11-01T19:02:52.305Z,13.83
2018-11-01T19:05:21.259Z,13.23
2018-11-01T19:07:50.211Z,14.10
2018-11-01T19:10:21.067Z,13.83
2018-11-01T19:12:53.890Z,13.80
2018-11-01T19:15:22.232Z,14.83
2018-11-01T19:17:50.562Z,15.13
2018-11-01T19:20:19.196Z,13.20
2018-11-01T19:22:48.183Z,14.23
2018-11-01T19:25:17.559Z,14.77
2018-11-01T19:27:46.291Z,16.00
2018-11-01T19:30:15.242Z,16.23
2018-11-01T19:32:46.312Z,17.73
2018-11-01T19:35:14.749Z,16.73
2018-11-01T19:37:43.072Z,16.80
2018-11-01T19:40:13.594Z,23.00
2018-11-01T19:42:42.165Z,17.47
2018-11-01T19:45:10.996Z,20.77
2018-11-01T19:47:39.419Z,17.90
2018-11-01T19:50:09.035Z,19.00
2018-11-01T19:52:37.400Z,13.43
2018-11-01T19:55:07.325Z,12.80
2018-11-01T19:57:35.702Z,13.10
2018-11-01T20:00:04.386Z,13.00
2018-11-01T20:02:32.748Z,12.30
2018-11-01T20:05:01.793Z,11.93
2018-11-01T20:07:30.100Z,12.90
2018-11-01T20:09:58.741Z,12.47
2018-11-01T20:12:27.195Z,13.57
2018-11-01T20:14:56.366Z,14.60
2018-11-01T20:17:24.984Z,16.70
2018-11-01T20:19:53.465Z,13.33
2018-11-01T20:22:22.480Z,13.43
2018-11-01T20:24:50.811Z,13.00
2018-11-01T20:27:21.903Z,13.67
2018-11-01T20:29:50.638Z,12.90
2018-11-01T20:32:19.932Z,13.00
2018-11-01T20:34:48.713Z,13.00
2018-11-01T20:37:17.299Z,14.87
2018-11-01T20:39:46.377Z,12.50
2018-11-01T20:42:15.750Z,13.80
2018-11-01T20:44:44.316Z,14.20
2018-11-01T20:47:13.832Z,13.10
2018-11-01T20:49:42.167Z,12.77
2018-11-01T20:52:10.492Z,13.57
2018-11-01T20:54:38.975Z,12.70
2018-11-01T20:57:08.338Z,12.57
2018-11-01T21:02:12.588Z,13.27
2018-11-01T21:04:41.222Z,14.00
2018-11-01T21:07:09.520Z,13.37
2018-11-01T21:09:37.939Z,14.47
2018-11-01T21:12:06.344Z,14.37
2018-11-01T21:14:34.718Z,14.43
2018-11-01T21:17:04.122Z,14.23
2018-11-01T21:19:32.455Z,16.47
2018-11-01T21:22:00.788Z,15.90
2018-11-01T21:24:29.124Z,15.40
2018-11-01T21:26:57.479Z,15.77
2018-11-01T21:29:25.885Z,14.63
2018-11-01T21:31:54.197Z,16.33
2018-11-01T21:34:22.799Z,14.50
2018-11-01T21:36:51.101Z,14.33
2018-11-01T21:39:19.402Z,15.23
2018-11-01T21:41:47.781Z,16.77
2018-11-01T21:44:16.091Z,16.40
2018-11-01T21:46:44.424Z,15.77
2018-11-01T21:49:12.727Z,16.67
2018-11-01T21:51:41.068Z,17.10
2018-11-01T21:54:09.422Z,17.93
2018-11-01T21:56:37.785Z,17.93
2018-11-01T21:59:06.142Z,19.03
2018-11-01T22:01:34.477Z,17.67
2018-11-01T22:04:03.530Z,18.43
2018-11-01T22:06:31.828Z,18.30
2018-11-01T22:09:00.139Z,17.80
2018-11-01T22:11:28.410Z,17.63
2018-11-01T22:13:56.814Z,19.20
2018-11-01T22:16:25.065Z,19.70
2018-11-01T22:18:53.320Z,18.57
2018-11-01T22:21:21.570Z,20.30
2018-11-01T22:23:49.829Z,19.63
2018-11-01T22:26:19.009Z,20.13
2018-11-01T22:28:47.385Z,20.97
2018-11-01T22:31:15.600Z,21.37
2018-11-01T22:33:43.896Z,20.43
2018-11-01T22:36:12.140Z,20.83
2018-11-01T22:38:40.501Z,21.87
2018-11-01T22:41:08.827Z,20.70
2018-11-01T22:43:37.104Z,22.27
2018-11-01T22:46:05.477Z,22.03
2018-11-01T22:48:33.845Z,22.40
2018-11-01T22:51:01.972Z,21.97
2018-11-01T22:53:30.299Z,21.93
2018-11-01T22:55:58.582Z,23.17
2018-11-01T22:58:26.840Z,22.93
2018-11-01T23:00:55.289Z,22.23
2018-11-01T23:03:23.572Z,23.23
2018-11-01T23:05:51.821Z,22.63
2018-11-01T23:08:20.291Z,21.90
2018-11-01T23:10:48.504Z,26.40
2018-11-01T23:13:16.858Z,22.67
2018-11-01T23:15:45.183Z,25.97
2018-11-01T23:18:13.398Z,25.90
2018-11-01T23:20:41.661Z,24.13
2018-11-01T23:23:09.928Z,26.30
2018-11-01T23:25:38.159Z,26.30
2018-11-01T23:28:06.439Z,26.10
2018-11-01T23:30:34.667Z,25.63
2018-11-01T23:33:03.036Z,26.30
2018-11-01T23:35:31.269Z,29.77
2018-11-01T23:38:05.158Z,28.60
2018-11-01T23:40:39.434Z,27.25
2018-11-01T23:43:13.059Z,28.03
2018-11-01T23:45:46.830Z,28.67
2018-11-01T23:48:14.280Z,28.30
2018-11-01T23:50:46.976Z,30.20
2018-11-01T23:53:18.045Z,27.23
2018-11-01T23:55:46.447Z,27.97
2018-11-01T23:58:14.703Z,29.40
